createdAt,value
2018-11-20T00:05:29.038Z,2.83
2018-11-20T00:10:58.340Z,2.84
2018-11-20T00:16:27.563Z,2.78
2018-11-20T00:22:06.320Z,2.93
2018-11-20T00:27:21.456Z,2.71
2018-11-20T00:32:50.805Z,2.84
2018-11-20T00:38:23.266Z,2.71
2018-11-20T00:43:58.643Z,2.77
2018-11-20T00:49:34.171Z,2.78
2018-11-20T00:54:49.072Z,2.93
2018-11-20T01:00:10.634Z,2.79
2018-11-20T01:05:32.793Z,2.73
2018-11-20T01:11:05.104Z,2.67
2018-11-20T01:16:27.312Z,2.71
2018-11-20T01:22:08.699Z,2.78
2018-11-20T01:27:25.779Z,2.54
2018-11-20T01:32:48.034Z,2.60
2018-11-20T01:38:09.797Z,2.57
2018-11-20T01:43:48.162Z,2.59
2018-11-20T01:49:03.875Z,2.59
2018-11-20T01:54:33.296Z,2.50
2018-11-20T01:59:46.531Z,2.61
2018-11-20T02:05:28.132Z,2.63
2018-11-20T02:10:45.104Z,2.71
2018-11-20T02:16:14.589Z,2.71
2018-11-20T02:21:44.379Z,2.65
2018-11-20T02:27:06.440Z,2.47
2018-11-20T02:32:24.536Z,2.45
2018-11-20T02:37:50.665Z,2.44
2018-11-20T02:43:12.598Z,2.38
2018-11-20T02:48:51.056Z,2.37
2018-11-20T02:54:13.233Z,2.44
2018-11-20T02:59:42.300Z,2.22
2018-11-20T03:05:04.207Z,2.22
2018-11-20T03:10:33.527Z,2.47
2018-11-20T03:16:03.010Z,2.33
2018-11-20T03:21:26.353Z,2.39
2018-11-20T03:26:49.711Z,2.31
2018-11-20T03:32:08.230Z,2.57
2018-11-20T03:37:43.901Z,2.40
2018-11-20T03:42:58.976Z,2.38
2018-11-20T03:48:38.064Z,2.63
2018-11-20T03:53:55.968Z,2.58
2018-11-20T03:59:21.232Z,2.46
2018-11-20T04:04:47.197Z,2.44
2018-11-20T04:10:13.235Z,2.70
2018-11-20T04:15:54.765Z,2.70
2018-11-20T04:21:24.080Z,2.66
2018-11-20T04:26:42.275Z,2.59
2018-11-20T04:32:30.982Z,2.70
2018-11-20T04:38:00.485Z,2.73
2018-11-20T04:43:36.573Z,2.88
2018-11-20T04:49:19.016Z,2.71
2018-11-20T04:55:01.480Z,2.74
2018-11-20T05:00:43.913Z,2.90
2018-11-20T05:06:26.350Z,2.89
2018-11-20T05:12:08.822Z,2.81
2018-11-20T05:17:51.260Z,2.91
2018-11-20T05:23:33.713Z,2.85
2018-11-20T05:29:10.001Z,2.74
2018-11-20T05:34:52.472Z,2.71
2018-11-20T05:40:34.995Z,2.60
2018-11-20T05:46:17.422Z,2.70
2018-11-20T05:51:59.887Z,2.78
2018-11-20T05:57:42.363Z,2.75
2018-11-20T06:03:24.811Z,2.72
2018-11-20T06:09:07.276Z,2.76
2018-11-20T06:14:49.735Z,2.81
2018-11-20T06:20:32.176Z,3.07
2018-11-20T06:26:14.612Z,2.87
2018-11-20T06:31:57.070Z,3.03
2018-11-20T06:37:39.515Z,3.06
2018-11-20T06:43:21.955Z,3.16
2018-11-20T06:49:04.418Z,3.24
2018-11-20T06:54:46.869Z,3.24
2018-11-20T07:00:29.313Z,3.08
2018-11-20T07:06:11.775Z,3.29
2018-11-20T07:11:54.249Z,3.31
2018-11-20T07:17:39.337Z,3.33
2018-11-20T07:23:21.820Z,3.42
2018-11-20T07:29:04.258Z,3.59
2018-11-20T07:34:46.728Z,3.56
2018-11-20T07:40:29.150Z,3.50
2018-11-20T07:46:11.598Z,3.26
2018-11-20T07:51:54.055Z,3.49
2018-11-20T07:57:28.713Z,3.52
2018-11-20T08:03:11.175Z,3.53
2018-11-20T08:08:53.616Z,3.59
2018-11-20T08:14:36.076Z,3.66
2018-11-20T08:20:18.505Z,4.11
2018-11-20T08:26:01.135Z,4.48
2018-11-20T08:31:43.395Z,4.69
2018-11-20T08:37:25.865Z,4.64
2018-11-20T08:43:03.103Z,4.57
2018-11-20T08:48:45.549Z,4.87
2018-11-20T08:54:27.997Z,4.95
2018-11-20T09:00:10.494Z,5.12
2018-11-20T09:05:46.758Z,4.99
2018-11-20T09:11:29.208Z,5.03
2018-11-20T09:17:11.665Z,4.94
2018-11-20T09:22:54.137Z,4.69
2018-11-20T09:28:36.593Z,4.92
2018-11-20T09:34:19.080Z,5.00
2018-11-20T09:40:02.355Z,4.99
2018-11-20T09:46:10.958Z,5.30
2018-11-20T09:51:53.403Z,5.73
2018-11-20T09:57:35.880Z,5.58
2018-11-20T10:03:18.345Z,5.99
2018-11-20T10:08:53.470Z,6.25
2018-11-20T10:14:36.013Z,6.28
2018-11-20T10:20:18.397Z,6.31
2018-11-20T10:26:00.941Z,6.19
2018-11-20T10:31:43.312Z,6.09
2018-11-20T10:37:25.780Z,6.00
2018-11-20T10:43:08.246Z,6.05
2018-11-20T10:48:50.700Z,6.03
2018-11-20T10:54:33.188Z,6.14
2018-11-20T11:00:15.643Z,6.06
2018-11-20T11:05:58.127Z,6.30
2018-11-20T11:11:40.695Z,6.37
2018-11-20T11:17:23.092Z,6.09
2018-11-20T11:23:05.552Z,5.98
2018-11-20T11:28:44.888Z,6.00
2018-11-20T11:34:27.438Z,6.28
2018-11-20T11:40:09.914Z,6.21
2018-11-20T11:45:45.839Z,5.98
2018-11-20T11:51:28.299Z,6.26
2018-11-20T11:57:10.765Z,6.31
2018-11-20T12:08:35.322Z,6.16
2018-11-20T12:14:17.362Z,6.19
2018-11-20T12:19:59.928Z,6.23
2018-11-20T12:25:42.390Z,6.18
2018-11-20T12:31:24.857Z,6.46
2018-11-20T12:37:07.318Z,6.41
2018-11-20T12:42:49.770Z,6.31
2018-11-20T12:48:32.265Z,6.36
2018-11-20T12:54:15.122Z,6.68
2018-11-20T12:59:57.213Z,6.64
2018-11-20T13:05:39.702Z,6.73
2018-11-20T13:11:22.168Z,6.98
2018-11-20T13:17:06.852Z,6.82
2018-11-20T13:22:47.209Z,6.79
2018-11-20T13:28:21.128Z,6.91
2018-11-20T13:34:03.624Z,6.92
2018-11-20T13:39:46.095Z,6.86
2018-11-20T13:45:28.563Z,7.00
2018-11-20T13:51:11.842Z,6.87
2018-11-20T13:56:53.529Z,6.91
2018-11-20T14:02:36.032Z,7.17
2018-11-20T14:08:19.874Z,7.37
2018-11-20T14:14:04.097Z,6.95
2018-11-20T14:19:46.549Z,6.82
2018-11-20T14:25:39.759Z,6.80
2018-11-20T14:31:15.767Z,6.65
2018-11-20T14:36:58.223Z,6.66
2018-11-20T14:42:40.709Z,6.50
2018-11-20T14:48:23.442Z,6.49
2018-11-20T14:54:11.828Z,6.69
2018-11-20T14:59:35.247Z,6.98
2018-11-20T15:04:57.214Z,6.70
2018-11-20T15:10:35.629Z,6.66
2018-11-20T15:15:59.033Z,6.63
2018-11-20T15:21:34.698Z,6.74
2018-11-20T15:26:56.934Z,6.64
2018-11-20T15:32:22.149Z,6.65
2018-11-20T15:37:49.113Z,6.55
2018-11-20T15:43:12.488Z,6.52
2018-11-20T15:49:29.091Z,6.53
2018-11-20T15:55:10.024Z,6.34
2018-11-20T16:00:51.743Z,6.21
2018-11-20T16:06:33.446Z,6.06
2018-11-20T16:12:15.163Z,5.86
2018-11-20T16:17:57.107Z,5.69
2018-11-20T16:23:38.909Z,5.50
2018-11-20T16:29:20.625Z,5.34
2018-11-20T16:35:21.923Z,5.16
2018-11-20T16:41:03.616Z,4.97
2018-11-20T16:46:45.312Z,4.71
2018-11-20T16:52:27.038Z,4.40
2018-11-20T16:58:08.816Z,4.31
2018-11-20T17:03:50.555Z,4.23
2018-11-20T17:09:32.301Z,4.17
2018-11-20T17:15:14.072Z,4.04
2018-11-20T17:20:55.774Z,3.96
2018-11-20T17:26:33.247Z,3.91
2018-11-20T17:32:14.955Z,3.77
2018-11-20T17:37:56.677Z,3.67
2018-11-20T17:43:38.450Z,3.46
2018-11-20T17:49:23.251Z,3.30
2018-11-20T17:55:04.964Z,3.18
2018-11-20T18:00:46.709Z,2.90
2018-11-20T18:06:31.925Z,2.91
2018-11-20T18:12:10.176Z,2.71
2018-11-20T18:17:51.924Z,2.59
2018-11-20T18:23:33.702Z,2.43
2018-11-20T18:29:15.435Z,2.44
2018-11-20T18:34:57.241Z,2.38
2018-11-20T18:40:39.022Z,2.23
2018-11-20T18:46:20.792Z,2.11
2018-11-20T18:52:02.580Z,2.07
2018-11-20T18:57:44.346Z,2.05
2018-11-20T19:03:26.109Z,1.89
2018-11-20T19:09:07.844Z,1.75
2018-11-20T19:14:49.637Z,1.61
2018-11-20T19:20:31.383Z,1.48
2018-11-20T19:26:13.136Z,1.46
2018-11-20T19:31:54.918Z,1.43
2018-11-20T19:37:36.703Z,1.37
2018-11-20T19:43:18.548Z,1.34
2018-11-20T19:49:00.326Z,1.19
2018-11-20T19:54:42.079Z,1.09
2018-11-20T20:00:26.369Z,1.05
2018-11-20T20:06:08.132Z,1.08
2018-11-20T20:11:49.872Z,1.03
2018-11-20T20:17:31.616Z,1.07
2018-11-20T20:23:13.350Z,1.00
2018-11-20T20:28:49.313Z,1.10
2018-11-20T20:34:31.051Z,1.12
2018-11-20T20:40:12.828Z,1.08
2018-11-20T20:45:48.432Z,1.01
2018-11-20T20:51:39.451Z,0.93
2018-11-20T20:57:00.289Z,0.77
2018-11-20T21:02:21.221Z,0.70
2018-11-20T21:07:43.274Z,0.65
2018-11-20T21:13:02.860Z,0.50
2018-11-20T21:18:25.189Z,0.43
2018-11-20T21:23:47.452Z,0.44
2018-11-20T21:29:16.461Z,0.31
2018-11-20T21:34:38.633Z,0.32
2018-11-20T21:40:06.943Z,0.36
2018-11-20T21:45:28.523Z,0.28
2018-11-20T21:50:51.210Z,0.21
2018-11-20T21:56:16.861Z,0.21
2018-11-20T22:01:58.146Z,0.21
2018-11-20T22:07:29.192Z,0.13
2018-11-20T22:13:06.577Z,0.16
2018-11-20T22:18:29.030Z,0.17
2018-11-20T22:24:03.510Z,0.10
2018-11-20T22:29:35.153Z,0.14
2018-11-20T22:34:55.824Z,0.10
2018-11-20T22:40:16.813Z,0.01
2018-11-20T22:45:37.613Z,0.08
2018-11-20T22:51:14.875Z,0.02
2018-11-20T22:56:36.002Z,-0.12
2018-11-20T23:01:57.141Z,-0.19
2018-11-20T23:07:18.043Z,-0.20
2018-11-20T23:12:20.693Z,-0.26
2018-11-20T23:17:23.374Z,-0.28
2018-11-20T23:22:26.115Z,-0.28
2018-11-20T23:27:29.075Z,-0.22
2018-11-20T23:32:31.717Z,-0.15
2018-11-20T23:37:34.365Z,-0.05
2018-11-20T23:42:37.266Z,-0.08
2018-11-20T23:47:40.057Z,0.08
2018-11-20T23:52:42.842Z,0.04
2018-11-20T23:57:45.533Z,0.15
